Upton upon Severn, United Kingdom
Current Conditions -  °F | °C
As of 3:58 AM on Sunday 26 Oct 2014 (Local Time) from EGVA Reporting Station
Overcast Overcast  
Wind Chill: 54°   Ceiling: 3600
Heat Index: 54°   Visibility: 6mi
Dew Point: 46°   Wind: 13mph
Humidity: 75%   Direction: 220°SW
Pressure: 30.1"   Gusts: NA
Location:  52.06°N, 2.22°W
Report Text: EGVA 260258Z AUTO 22011KT 9999 OVC036 12/08 A3010 RMK AO2 SLP196 P2400 65041 T01220078 58002
Loading
Personal Weather Stations






























Interactive Weather Map
Tropical Storm Tracking
New forecast layout! Learn more

10-Day Weather Forecast

Advertisements
Track Severe Weather on mobile